Time;durP1;ratioP1;P1;durP2;ratioP2;P2;SDS_P1;SDS_P2;PMS_P1;PMS_P2;Temp;Humidity;BMP_temperature;BMP_pressure;BME280_temperature;BME280_humidity;BME280_pressure;Samples;Min_cycle;Max_cycle;Signal;HPM_P1;HPM_P2
2022/06/18 00:01:40;;;;;;;0.70;0.20;;;24.00;99.90;;;;;;5013816;28;20504;-70
2022/06/18 00:04:10;;;;;;;0.70;0.20;;;23.90;99.90;;;;;;5014822;28;20455;-71
2022/06/18 00:06:43;;;;;;;0.70;0.20;;;23.80;99.90;;;;;;5033262;28;20475;-71
2022/06/18 00:09:13;;;;;;;0.70;0.20;;;23.80;99.90;;;;;;5033463;28;20806;-71
2022/06/18 00:14:28;;;;;;;0.70;0.20;;;23.70;99.90;;;;;;5033222;28;20546;-71
2022/06/18 00:16:56;;;;;;;0.70;0.20;;;23.70;99.90;;;;;;5032919;28;20981;-71
2022/06/18 00:19:24;;;;;;;0.90;0.20;;;23.70;99.90;;;;;;5033194;28;20440;-71
2022/06/18 00:21:53;;;;;;;0.70;0.20;;;23.70;99.90;;;;;;5021345;28;20539;-71
2022/06/18 00:24:22;;;;;;;0.70;0.10;;;23.80;99.90;;;;;;5013317;28;20621;-71
2022/06/18 00:26:51;;;;;;;0.70;0.10;;;;;;;;;;5015541;28;20444;-71
2022/06/18 00:29:20;;;;;;;0.70;0.20;;;23.70;99.90;;;;;;5033152;28;20461;-71
2022/06/18 00:31:49;;;;;;;0.70;0.20;;;23.70;99.90;;;;;;5033236;28;20450;-70
2022/06/18 00:34:17;;;;;;;0.70;0.10;;;23.70;99.90;;;;;;5033056;28;20466;-71
2022/06/18 00:36:45;;;;;;;0.70;0.20;;;23.70;99.90;;;;;;5032467;28;20800;-70
2022/06/18 00:39:15;;;;;;;0.70;0.20;;;23.70;99.90;;;;;;5032823;28;20459;-71
2022/06/18 00:41:44;;;;;;;0.70;0.20;;;23.60;99.90;;;;;;5033112;28;20447;-72
2022/06/18 00:44:26;;;;;;;0.70;0.13;;;23.60;99.90;;;;;;5032875;28;20443;-71
2022/06/18 00:47:07;;;;;;;0.70;0.10;;;23.60;99.90;;;;;;5032546;28;20450;-71
2022/06/18 00:49:43;;;;;;;0.70;0.10;;;23.50;99.90;;;;;;5032997;28;20470;-71
2022/06/18 00:52:17;;;;;;;0.70;0.20;;;23.50;99.90;;;;;;5020559;28;20451;-71
2022/06/18 00:54:50;;;;;;;0.70;0.10;;;23.50;99.90;;;;;;5023720;28;20454;-71
2022/06/18 00:57:28;;;;;;;0.70;0.10;;;23.50;99.90;;;;;;5030540;28;20454;-71
2022/06/18 01:00:01;;;;;;;0.70;0.20;;;23.40;99.90;;;;;;5032512;28;20467;-70
2022/06/18 01:02:35;;;;;;;0.80;0.40;;;23.40;99.90;;;;;;5033221;28;20440;-71
2022/06/18 01:05:15;;;;;;;0.70;0.30;;;23.30;99.90;;;;;;5031427;28;20482;-71
2022/06/18 01:07:43;;;;;;;0.70;0.20;;;23.30;99.90;;;;;;5032886;28;20926;-71
2022/06/18 01:10:16;;;;;;;0.70;0.10;;;23.20;99.90;;;;;;5033264;28;20482;-70
2022/06/18 01:12:44;;;;;;;0.70;0.10;;;23.30;99.90;;;;;;5032954;28;20440;-70
2022/06/18 01:15:20;;;;;;;0.70;0.10;;;23.20;99.90;;;;;;5033161;28;20451;-70
2022/06/18 01:17:53;;;;;;;0.70;0.10;;;23.10;99.90;;;;;;5032570;28;20629;-71
2022/06/18 01:20:22;;;;;;;0.70;0.10;;;23.00;99.90;;;;;;5027469;28;20475;-71
2022/06/18 01:22:59;;;;;;;0.70;0.10;;;23.00;99.90;;;;;;5020809;28;20445;-71
2022/06/18 01:25:30;;;;;;;0.70;0.10;;;22.90;99.90;;;;;;5011057;28;20479;-70
2022/06/18 01:27:58;;;;;;;0.70;0.20;;;22.90;99.90;;;;;;5023760;28;20467;-71
2022/06/18 01:30:32;;;;;;;0.70;0.20;;;22.80;99.90;;;;;;5031687;28;20555;-71
2022/06/18 01:33:01;;;;;;;0.70;0.10;;;22.70;99.90;;;;;;5032383;28;20781;-69
2022/06/18 01:35:29;;;;;;;0.70;0.30;;;22.70;99.90;;;;;;5032458;28;20442;-71
2022/06/18 01:37:58;;;;;;;0.70;0.20;;;22.60;99.90;;;;;;5031869;28;20447;-71
2022/06/18 01:40:34;;;;;;;0.70;0.10;;;22.60;99.90;;;;;;5031929;28;20471;-71
2022/06/18 01:43:04;;;;;;;1.43;1.33;;;22.50;99.90;;;;;;5032360;28;20818;-71
2022/06/18 01:45:36;;;;;;;0.70;0.20;;;22.40;99.90;;;;;;5031296;28;20485;-71
2022/06/18 01:48:09;;;;;;;0.70;0.10;;;22.30;99.90;;;;;;5011872;28;20449;-71
2022/06/18 01:50:44;;;;;;;0.70;0.10;;;22.30;99.90;;;;;;5012325;28;20464;-70
2022/06/18 01:53:16;;;;;;;0.70;0.10;;;22.20;99.90;;;;;;5011991;28;20514;-70
2022/06/18 01:55:50;;;;;;;0.70;0.10;;;22.20;99.90;;;;;;5011986;28;20445;-71
2022/06/18 01:58:22;;;;;;;0.70;0.10;;;22.20;99.90;;;;;;5011796;28;20436;-70
2022/06/18 02:00:56;;;;;;;0.70;0.10;;;22.20;99.90;;;;;;5021036;28;20475;-70
2022/06/18 02:03:24;;;;;;;0.70;0.20;;;22.10;99.90;;;;;;5031848;28;20448;-70
2022/06/18 02:05:53;;;;;;;0.70;0.20;;;22.10;99.90;;;;;;5031552;28;20505;-71
2022/06/18 02:08:20;;;;;;;0.70;0.10;;;22.00;99.90;;;;;;5031236;28;20960;-70
2022/06/18 02:10:54;;;;;;;0.70;0.20;;;22.00;99.90;;;;;;5031570;28;20475;-70
2022/06/18 02:13:26;;;;;;;0.70;0.20;;;22.00;99.90;;;;;;5031761;28;20451;-70
2022/06/18 02:15:56;;;;;;;1.03;0.67;;;22.00;99.90;;;;;;5028354;28;20966;-70
2022/06/18 02:18:25;;;;;;;0.70;0.10;;;21.90;99.90;;;;;;5018340;28;20443;-70
2022/06/18 02:20:55;;;;;;;0.80;0.37;;;21.90;99.90;;;;;;5017149;28;20466;-71
2022/06/18 02:23:25;;;;;;;0.70;0.20;;;21.90;99.90;;;;;;5018597;28;20440;-70
2022/06/18 02:25:54;;;;;;;0.70;0.20;;;21.90;99.90;;;;;;5018605;28;20843;-70
2022/06/18 02:28:24;;;;;;;0.70;0.20;;;21.90;99.90;;;;;;5031149;28;20443;-71
2022/06/18 02:30:56;;;;;;;0.70;0.20;;;21.90;99.90;;;;;;5018390;28;20474;-71
2022/06/18 02:33:31;;;;;;;0.70;0.10;;;21.90;99.90;;;;;;5018208;28;20444;-71
2022/06/18 02:36:05;;;;;;;0.70;0.40;;;21.90;99.90;;;;;;5018001;28;20443;-71
2022/06/18 02:38:33;;;;;;;0.70;0.20;;;21.80;99.90;;;;;;5018422;28;20447;-71
2022/06/18 02:41:02;;;;;;;0.70;0.20;;;21.80;99.90;;;;;;5018358;28;20474;-71
2022/06/18 02:43:30;;;;;;;0.70;0.20;;;21.80;99.90;;;;;;5027568;28;20451;-71
2022/06/18 02:45:59;;;;;;;0.70;0.10;;;21.80;99.90;;;;;;5037803;28;20482;-73
2022/06/18 02:48:29;;;;;;;0.70;0.20;;;21.70;99.90;;;;;;5037787;28;20438;-70
2022/06/18 02:51:00;;;;;;;0.70;0.10;;;21.70;99.90;;;;;;5038025;28;20813;-72
2022/06/18 02:53:29;;;;;;;0.70;0.20;;;21.70;99.90;;;;;;5038013;28;20462;-71
2022/06/18 02:56:00;;;;;;;0.70;0.20;;;21.80;99.90;;;;;;5037478;28;21121;-71
2022/06/18 02:58:33;;;;;;;0.70;0.20;;;21.80;99.90;;;;;;5036524;28;20462;-71
2022/06/18 03:01:03;;;;;;;0.70;0.10;;;21.80;99.90;;;;;;5038368;28;20463;-71
2022/06/18 03:03:33;;;;;;;0.70;0.20;;;21.70;99.90;;;;;;5038340;28;21195;-71
2022/06/18 03:06:02;;;;;;;0.70;0.17;;;21.70;99.90;;;;;;5037929;28;20481;-70
2022/06/18 03:08:31;;;;;;;0.70;0.10;;;21.60;99.90;;;;;;5038716;28;20443;-70
2022/06/18 03:13:47;;;;;;;0.70;0.10;;;21.50;99.90;;;;;;5017740;28;20946;-73
2022/06/18 03:16:18;;;;;;;0.70;0.10;;;21.50;99.90;;;;;;5017357;28;20436;-73
2022/06/18 03:18:47;;;;;;;0.70;0.20;;;21.50;99.90;;;;;;5017823;28;20482;-73
2022/06/18 03:21:21;;;;;;;0.70;0.10;;;21.50;99.90;;;;;;5017378;28;20464;-72
2022/06/18 03:23:49;;;;;;;0.70;0.10;;;21.50;99.90;;;;;;5017913;28;20809;-72
2022/06/18 03:26:18;;;;;;;0.70;0.20;;;21.50;99.90;;;;;;5006726;28;20504;-72
2022/06/18 03:28:48;;;;;;;0.70;0.10;;;21.50;99.90;;;;;;4994402;28;20533;-72
2022/06/18 03:31:15;;;;;;;0.70;0.10;;;21.50;99.90;;;;;;4997258;28;20469;-72
2022/06/18 03:33:44;;;;;;;0.70;0.20;;;21.50;99.90;;;;;;4997717;28;20955;-73
2022/06/18 03:36:12;;;;;;;0.70;0.17;;;21.50;99.90;;;;;;4994815;28;20851;-72
2022/06/18 03:38:40;;;;;;;0.70;0.10;;;21.50;99.90;;;;;;4995253;28;21022;-73
2022/06/18 03:41:09;;;;;;;0.70;0.10;;;21.50;99.90;;;;;;4995000;28;20477;-73
2022/06/18 03:43:38;;;;;;;0.70;0.10;;;21.50;99.90;;;;;;4994920;28;20449;-73
2022/06/18 03:46:09;;;;;;;0.70;0.30;;;21.50;99.90;;;;;;4993853;28;20484;-75
2022/06/18 03:48:42;;;;;;;0.70;0.20;;;21.50;99.90;;;;;;4995005;28;20445;-72
2022/06/18 03:51:10;;;;;;;1.23;1.13;;;21.50;99.90;;;;;;4994730;28;20471;-72
2022/06/18 03:53:39;;;;;;;0.70;0.20;;;21.60;99.90;;;;;;4999033;28;20939;-72
2022/06/18 03:56:08;;;;;;;0.70;0.10;;;21.60;99.90;;;;;;5014013;28;20461;-73
2022/06/18 03:58:36;;;;;;;0.70;0.10;;;21.60;99.90;;;;;;5014659;28;20457;-73
2022/06/18 04:01:04;;;;;;;0.70;0.10;;;21.60;99.90;;;;;;5014713;28;20471;-73
2022/06/18 04:03:33;;;;;;;0.70;0.13;;;21.60;99.90;;;;;;5015430;28;20474;-73
2022/06/18 04:06:01;;;;;;;0.70;0.10;;;21.70;99.90;;;;;;5016152;28;20452;-73
2022/06/18 04:08:29;;;;;;;0.70;0.20;;;21.70;99.90;;;;;;5006444;28;20456;-73
2022/06/18 04:10:58;;;;;;;0.70;0.10;;;21.80;99.90;;;;;;4997202;28;20476;-74
2022/06/18 04:13:28;;;;;;;0.70;0.20;;;;;;;;;;4996058;28;20433;-73
2022/06/18 04:15:56;;;;;;;0.70;0.20;;;21.80;99.90;;;;;;4995340;28;20971;-73
2022/06/18 04:18:24;;;;;;;0.70;0.20;;;21.90;99.90;;;;;;4994718;28;20862;-74
2022/06/18 04:20:54;;;;;;;0.70;0.20;;;21.90;99.90;;;;;;4995053;28;20465;-73
2022/06/18 04:23:22;;;;;;;0.70;0.20;;;21.90;99.90;;;;;;5010794;28;20480;-73
2022/06/18 04:25:51;;;;;;;0.70;0.10;;;22.00;99.90;;;;;;5014369;28;20448;-73
2022/06/18 04:28:19;;;;;;;0.70;0.20;;;22.00;99.90;;;;;;4999430;28;20996;-73
2022/06/18 04:30:47;;;;;;;0.70;0.10;;;22.10;99.90;;;;;;4994549;28;20485;-72
2022/06/18 04:33:16;;;;;;;0.70;0.13;;;22.10;99.90;;;;;;4994540;28;20446;-72
2022/06/18 04:35:53;;;;;;;0.70;0.10;;;22.20;99.90;;;;;;4995737;28;20437;-72
2022/06/18 04:38:21;;;;;;;0.70;0.20;;;22.20;99.90;;;;;;5013187;28;20447;-72
2022/06/18 04:40:49;;;;;;;0.70;0.10;;;22.30;99.90;;;;;;5013681;28;20464;-71
2022/06/18 04:43:26;;;;;;;0.70;0.10;;;22.30;99.90;;;;;;5014542;28;20444;-73
2022/06/18 04:45:56;;;;;;;0.70;0.10;;;22.40;99.90;;;;;;5013379;28;20444;-73
2022/06/18 04:48:24;;;;;;;0.70;0.10;;;22.50;99.90;;;;;;5012954;28;20480;-73
2022/06/18 04:50:53;;;;;;;0.70;0.10;;;22.70;99.90;;;;;;5003712;28;20476;-73
2022/06/18 04:53:21;;;;;;;0.70;0.20;;;22.70;99.90;;;;;;4996889;28;20441;-73
2022/06/18 04:55:49;;;;;;;0.70;0.10;;;22.90;99.90;;;;;;4993645;28;20453;-73
2022/06/18 04:58:17;;;;;;;0.70;0.10;;;23.10;99.90;;;;;;4993443;28;20441;-73
2022/06/18 05:00:45;;;;;;;0.70;0.20;;;23.10;99.90;;;;;;4993825;28;21061;-73
2022/06/18 05:03:18;;;;;;;0.70;0.10;;;23.20;99.90;;;;;;4993683;28;20540;-74
2022/06/18 05:05:46;;;;;;;0.70;0.10;;;23.30;99.90;;;;;;5008258;28;20467;-72
2022/06/18 05:08:15;;;;;;;0.70;0.40;;;23.30;99.90;;;;;;5012721;28;21088;-74
2022/06/18 05:10:44;;;;;;;0.70;0.10;;;23.40;99.90;;;;;;5012835;28;20993;-73
2022/06/18 05:13:13;;;;;;;0.70;0.10;;;23.40;99.90;;;;;;5013219;28;20455;-73
2022/06/18 05:15:42;;;;;;;0.70;0.10;;;23.50;99.90;;;;;;5012710;28;20444;-74
2022/06/18 05:18:13;;;;;;;0.70;0.20;;;23.40;99.90;;;;;;5011908;28;20788;-74
2022/06/18 05:20:41;;;;;;;0.70;0.20;;;23.40;99.90;;;;;;5003773;28;20468;-73
2022/06/18 05:23:12;;;;;;;0.70;0.20;;;23.50;99.90;;;;;;5013266;28;20450;-73
2022/06/18 05:25:42;;;;;;;0.70;0.10;;;23.60;99.90;;;;;;5012540;28;20776;-73
2022/06/18 05:28:11;;;;;;;0.70;0.10;;;23.60;99.90;;;;;;4999289;28;20512;-75
2022/06/18 05:30:40;;;;;;;0.70;0.20;;;22.00;99.90;;;;;;4992936;28;20839;-72
2022/06/18 05:33:08;;;;;;;0.70;0.10;;;23.60;99.90;;;;;;4993811;28;20445;-72
2022/06/18 05:35:39;;;;;;;0.70;0.10;;;23.70;99.90;;;;;;5010883;28;20456;-74
2022/06/18 05:38:07;;;;;;;0.70;0.10;;;23.70;99.90;;;;;;5012971;28;20447;-74
2022/06/18 05:40:35;;;;;;;0.70;0.20;;;23.80;99.90;;;;;;5013271;28;20464;-73
2022/06/18 05:43:04;;;;;;;0.70;0.10;;;23.90;99.90;;;;;;5013832;28;20460;-73
2022/06/18 05:45:32;;;;;;;0.70;0.10;;;23.90;99.90;;;;;;5013462;28;20563;-73
2022/06/18 05:48:00;;;;;;;0.70;0.10;;;23.90;99.90;;;;;;5011310;28;20472;-74
2022/06/18 05:50:28;;;;;;;0.70;0.17;;;24.00;99.90;;;;;;5006505;28;20464;-73
2022/06/18 05:52:56;;;;;;;0.70;0.10;;;24.00;99.90;;;;;;5013158;28;20448;-74
2022/06/18 05:55:25;;;;;;;0.70;0.10;;;24.00;99.90;;;;;;5012866;28;20444;-74
2022/06/18 05:57:58;;;;;;;0.70;0.20;;;24.10;99.90;;;;;;5013044;28;20975;-72
2022/06/18 06:00:31;;;;;;;0.70;0.10;;;24.10;99.90;;;;;;5013032;28;20847;-73
2022/06/18 06:02:59;;;;;;;0.80;0.33;;;24.20;99.90;;;;;;5011855;28;20459;-74
2022/06/18 06:05:27;;;;;;;0.70;0.10;;;24.20;99.90;;;;;;5003059;28;20602;-74
2022/06/18 06:07:55;;;;;;;0.70;0.20;;;24.20;99.90;;;;;;4999567;28;20488;-75
2022/06/18 06:13:12;;;;;;;0.70;0.10;;;24.30;99.90;;;;;;5012764;28;20822;-74
2022/06/18 06:15:42;;;;;;;0.70;0.10;;;24.30;99.90;;;;;;4992012;28;20459;-73
2022/06/18 06:18:12;;;;;;;0.70;0.20;;;24.30;99.90;;;;;;4992513;28;20528;-74
2022/06/18 06:20:42;;;;;;;0.70;0.20;;;24.40;99.90;;;;;;4992269;28;20469;-75
2022/06/18 06:23:10;;;;;;;0.70;0.10;;;24.40;99.90;;;;;;4993416;28;20445;-74
2022/06/18 06:25:40;;;;;;;0.70;0.10;;;24.40;99.90;;;;;;5001311;28;20449;-73
2022/06/18 06:28:12;;;;;;;0.70;0.10;;;24.40;99.90;;;;;;4996317;28;20477;-73
2022/06/18 06:30:42;;;;;;;0.70;0.20;;;24.40;99.90;;;;;;4994560;28;20472;-73
2022/06/18 06:33:10;;;;;;;0.70;0.10;;;24.40;99.90;;;;;;4992895;28;21019;-73
2022/06/18 06:35:38;;;;;;;0.70;0.20;;;24.50;99.90;;;;;;5001524;28;20449;-75
2022/06/18 06:38:07;;;;;;;0.80;0.37;;;24.50;99.90;;;;;;5006438;28;20447;-74
2022/06/18 06:40:36;;;;;;;0.70;0.10;;;24.40;99.90;;;;;;5013972;28;20475;-75
2022/06/18 06:43:04;;;;;;;0.70;0.10;;;24.30;99.90;;;;;;5013105;28;20449;-75
2022/06/18 06:45:33;;;;;;;0.70;0.10;;;24.40;99.90;;;;;;5012758;28;20458;-74
2022/06/18 06:48:03;;;;;;;0.70;0.20;;;24.30;99.90;;;;;;5000658;28;20507;-73
2022/06/18 06:50:31;;;;;;;0.70;0.10;;;24.40;99.90;;;;;;4995128;28;20469;-74
2022/06/18 06:52:59;;;;;;;0.70;0.17;;;24.40;99.90;;;;;;4994709;28;20460;-73
2022/06/18 06:58:16;;;;;;;0.70;0.10;;;24.40;99.90;;;;;;4992587;28;20437;-74
2022/06/18 07:00:47;;;;;;;0.70;0.10;;;24.50;99.90;;;;;;4994901;28;20956;-75
2022/06/18 07:03:19;;;;;;;0.70;0.10;;;24.50;99.90;;;;;;4997785;28;20476;-74
2022/06/18 07:05:47;;;;;;;0.80;0.30;;;24.60;99.90;;;;;;5000155;28;20464;-73
2022/06/18 07:08:15;;;;;;;0.70;0.20;;;24.70;99.90;;;;;;5000179;28;20488;-76
2022/06/18 07:10:44;;;;;;;0.70;0.10;;;24.70;99.90;;;;;;5004909;28;20485;-75
2022/06/18 07:13:13;;;;;;;0.70;0.10;;;24.70;99.90;;;;;;5010148;28;20564;-74
2022/06/18 07:15:41;;;;;;;0.70;0.20;;;24.80;99.90;;;;;;5008631;28;20473;-75
2022/06/18 07:18:15;;;;;;;0.80;0.40;;;24.90;99.90;;;;;;5004918;28;20449;-72
2022/06/18 07:20:45;;;;;;;0.70;0.20;;;25.00;99.90;;;;;;4999764;28;20516;-73
2022/06/18 07:23:15;;;;;;;0.70;0.10;;;25.10;99.90;;;;;;4987042;28;20469;-74
2022/06/18 07:25:43;;;;;;;0.70;0.10;;;25.10;99.90;;;;;;4995525;28;20437;-75
2022/06/18 07:28:11;;;;;;;0.70;0.20;;;25.20;99.90;;;;;;4995697;28;20503;-75
2022/06/18 07:30:39;;;;;;;0.70;0.20;;;25.20;99.90;;;;;;4996187;28;20496;-74
2022/06/18 07:33:08;;;;;;;0.80;0.30;;;25.20;99.90;;;;;;4995675;28;20459;-73
2022/06/18 07:35:36;;;;;;;2.53;1.00;;;25.10;99.90;;;;;;4995364;28;20446;-69
2022/06/18 07:38:06;;;;;;;0.70;0.13;;;25.10;99.90;;;;;;5009881;28;20539;-70
2022/06/18 07:40:44;;;;;;;0.70;0.13;;;25.20;99.90;;;;;;5015276;28;20467;-68
2022/06/18 07:43:18;;;;;;;0.70;0.10;;;25.20;99.90;;;;;;5016443;28;20451;-73
2022/06/18 07:45:46;;;;;;;0.70;0.20;;;25.40;99.90;;;;;;5015505;28;20547;-73
2022/06/18 07:48:15;;;;;;;1.17;0.20;;;25.40;99.90;;;;;;5015676;28;20487;-75
2022/06/18 07:50:46;;;;;;;0.70;0.10;;;25.60;99.90;;;;;;5016166;28;20475;-76
2022/06/18 07:53:18;;;;;;;0.70;0.10;;;25.80;99.90;;;;;;5000602;28;21005;-73
2022/06/18 07:55:46;;;;;;;0.70;0.10;;;25.80;99.90;;;;;;4993604;28;20496;-77
2022/06/18 07:58:14;;;;;;;0.70;0.10;;;26.00;99.90;;;;;;4994694;28;20970;-75
2022/06/18 08:00:42;;;;;;;0.70;0.20;;;26.00;99.90;;;;;;4995602;28;21059;-72
2022/06/18 08:03:12;;;;;;;0.70;0.20;;;26.10;99.90;;;;;;4995330;28;20468;-74
2022/06/18 08:05:41;;;;;;;0.70;0.10;;;26.20;99.90;;;;;;5004006;28;20471;-75
2022/06/18 08:08:09;;;;;;;0.80;0.40;;;26.90;99.90;;;;;;5007842;28;20960;-76
2022/06/18 08:10:58;;;;;;;0.70;0.10;;;26.30;99.90;;;;;;4999844;28;20469;-74
2022/06/18 08:13:27;;;;;;;0.70;0.10;;;26.30;99.90;;;;;;4994439;28;20489;-69
2022/06/18 08:15:55;;;;;;;0.70;0.13;;;26.40;99.90;;;;;;4996990;28;20973;-69
2022/06/18 08:18:23;;;;;;;0.70;0.20;;;26.50;99.90;;;;;;4995145;28;20835;-75
2022/06/18 08:20:58;;;;;;;0.70;0.10;;;26.50;99.90;;;;;;4998512;28;20494;-76
2022/06/18 08:23:26;;;;;;;0.70;0.20;;;;;;;;;;4996166;28;20820;-69
2022/06/18 08:25:54;;;;;;;0.70;0.10;;;26.60;99.90;;;;;;4997649;28;20451;-75
2022/06/18 08:28:23;;;;;;;0.70;0.20;;;26.70;99.90;;;;;;4995271;28;20548;-74
2022/06/18 08:30:51;;;;;;;0.80;0.40;;;26.70;99.90;;;;;;4995377;28;20840;-75
2022/06/18 08:33:19;;;;;;;0.70;0.20;;;26.70;99.90;;;;;;4994028;28;20463;-74
2022/06/18 08:35:47;;;;;;;0.70;0.20;;;26.80;99.90;;;;;;5000106;28;20534;-74
2022/06/18 08:38:15;;;;;;;0.70;0.10;;;26.80;99.90;;;;;;5004908;28;20457;-74
2022/06/18 08:40:56;;;;;;;0.70;0.10;;;26.90;99.90;;;;;;4997165;28;20483;-74
2022/06/18 08:43:44;;;;;;;1.33;0.60;;;27.00;99.90;;;;;;4992883;28;20464;-74
2022/06/18 08:46:22;;;;;;;0.70;0.10;;;27.10;99.90;;;;;;4996849;28;20451;-74
2022/06/18 08:49:05;;;;;;;0.70;0.10;;;27.10;99.90;;;;;;4995742;28;20544;-74
2022/06/18 08:51:42;;;;;;;0.70;0.10;;;27.20;99.90;;;;;;5000450;28;20457;-75
2022/06/18 08:54:28;;;;;;;1.00;0.40;;;27.30;99.90;;;;;;4998690;28;20544;-73
2022/06/18 08:57:02;;;;;;;0.70;0.10;;;27.40;99.90;;;;;;5000682;28;20528;-74
2022/06/18 08:59:45;;;;;;;0.70;0.20;;;27.40;99.90;;;;;;5003922;28;20958;-74
2022/06/18 09:02:23;;;;;;;0.70;0.10;;;27.50;99.90;;;;;;4995627;28;20940;-69
2022/06/18 09:05:07;;;;;;;0.70;0.20;;;27.70;99.90;;;;;;4995119;28;20441;-71
2022/06/18 09:08:02;;;;;;;1.07;0.60;;;27.60;99.90;;;;;;4993786;28;20903;-72
2022/06/18 09:10:42;;;;;;;0.70;0.10;;;27.70;99.90;;;;;;4993919;28;20481;-72
2022/06/18 09:13:17;;;;;;;0.70;0.20;;;27.80;99.90;;;;;;4993544;28;20832;-73
2022/06/18 09:15:51;;;;;;;0.70;0.20;;;27.80;99.90;;;;;;4992228;28;20467;-72
2022/06/18 09:18:23;;;;;;;0.70;0.10;;;28.00;99.90;;;;;;4991330;28;20441;-71
2022/06/18 09:20:54;;;;;;;0.70;0.30;;;28.10;99.90;;;;;;4994358;28;20464;-70
2022/06/18 09:23:27;;;;;;;1.70;1.60;;;28.10;99.90;;;;;;4992077;28;20444;-71
2022/06/18 09:25:56;;;;;;;0.70;0.10;;;28.20;99.90;;;;;;4990509;28;20475;-71
2022/06/18 09:28:28;;;;;;;0.90;0.63;;;28.40;99.90;;;;;;5005457;28;20536;-72
2022/06/18 09:31:02;;;;;;;1.03;0.57;;;28.50;99.90;;;;;;4988234;28;21026;-74
2022/06/18 09:33:35;;;;;;;0.77;0.30;;;28.50;99.90;;;;;;4992555;28;20439;-71
2022/06/18 09:36:12;;;;;;;1.20;0.90;;;28.60;99.90;;;;;;4993550;28;20469;-69
2022/06/18 09:38:43;;;;;;;0.70;0.20;;;28.70;99.90;;;;;;4993756;28;20860;-69
2022/06/18 09:41:16;;;;;;;0.70;0.10;;;28.80;99.90;;;;;;4998349;28;20468;-68
2022/06/18 09:43:53;;;;;;;1.00;0.30;;;28.90;99.90;;;;;;5005520;28;20480;-72
2022/06/18 09:46:25;;;;;;;1.00;0.37;;;29.10;99.90;;;;;;4973265;28;20446;-69
2022/06/18 09:48:53;;;;;;;0.70;0.20;;;29.10;99.90;;;;;;4976073;28;20537;-73
2022/06/18 09:51:28;;;;;;;2.10;0.90;;;29.10;99.90;;;;;;4974064;28;20491;-72
2022/06/18 09:53:59;;;;;;;0.73;0.27;;;29.20;99.90;;;;;;4974357;28;20916;-74
2022/06/18 09:56:32;;;;;;;1.00;0.60;;;29.30;99.90;;;;;;4982959;28;20440;-73
2022/06/18 09:59:05;;;;;;;0.70;0.17;;;29.30;99.90;;;;;;5000692;28;20454;-72
2022/06/18 10:01:40;;;;;;;1.17;0.63;;;29.40;99.90;;;;;;4984531;28;20539;-73
2022/06/18 10:06:57;;;;;;;0.70;0.20;;;29.50;99.90;;;;;;4971355;28;20445;-73
2022/06/18 10:09:43;;;;;;;0.70;0.10;;;29.70;99.90;;;;;;4973477;28;20556;-73
2022/06/18 10:12:22;;;;;;;0.70;0.20;;;29.80;99.90;;;;;;4973047;28;20464;-72
2022/06/18 10:14:52;;;;;;;1.00;0.50;;;29.80;99.90;;;;;;4995336;28;20448;-72
2022/06/18 10:17:35;;;;;;;0.70;0.10;;;29.90;99.90;;;;;;5010829;28;20459;-72
2022/06/18 10:20:08;;;;;;;0.70;0.10;;;30.00;99.90;;;;;;5012325;28;20470;-73
2022/06/18 10:22:44;;;;;;;0.70;0.10;;;30.10;99.90;;;;;;5012516;28;20483;-74
2022/06/18 10:25:22;;;;;;;0.70;0.17;;;30.10;99.90;;;;;;5012894;28;20474;-73
2022/06/18 10:27:58;;;;;;;1.00;0.50;;;30.20;99.90;;;;;;5002056;28;20524;-74
2022/06/18 10:30:34;;;;;;;0.70;0.10;;;30.30;99.90;;;;;;4992635;28;20531;-73
2022/06/18 10:33:15;;;;;;;0.70;0.30;;;30.40;99.90;;;;;;4974516;28;20448;-73
2022/06/18 10:35:57;;;;;;;0.70;0.10;;;30.50;99.90;;;;;;4973931;28;20453;-74
2022/06/18 10:38:40;;;;;;;0.70;0.20;;;30.60;99.90;;;;;;4975965;28;20438;-72
2022/06/18 10:41:16;;;;;;;1.30;1.13;;;30.70;99.90;;;;;;4977411;28;20462;-74
2022/06/18 10:44:03;;;;;;;0.93;0.73;;;30.70;99.90;;;;;;4976851;28;20447;-73
2022/06/18 10:46:31;;;;;;;0.70;0.10;;;30.90;99.90;;;;;;4976897;28;20445;-73
2022/06/18 10:49:03;;;;;;;0.70;0.20;;;30.80;99.90;;;;;;5011588;28;20471;-73
2022/06/18 10:51:41;;;;;;;0.80;0.50;;;30.80;99.90;;;;;;5017031;28;20494;-72
2022/06/18 10:54:09;;;;;;;3.57;1.13;;;30.80;99.90;;;;;;5015838;28;20446;-73
2022/06/18 10:56:48;;;;;;;0.83;0.40;;;30.90;99.90;;;;;;5015732;28;20984;-73
2022/06/18 10:59:16;;;;;;;0.80;0.40;;;31.00;99.90;;;;;;5015843;28;20442;-73
2022/06/18 11:01:46;;;;;;;0.70;0.20;;;31.00;99.90;;;;;;5015461;28;20460;-72
2022/06/18 11:04:24;;;;;;;0.70;0.20;;;31.10;99.90;;;;;;5014245;28;20449;-72
2022/06/18 11:06:57;;;;;;;1.27;0.57;;;31.30;99.90;;;;;;5015557;28;20446;-72
2022/06/18 11:09:28;;;;;;;2.57;1.63;;;31.40;99.90;;;;;;5016167;28;21125;-72
2022/06/18 11:11:59;;;;;;;0.70;0.30;;;31.30;99.90;;;;;;5016267;28;20498;-72
2022/06/18 11:14:27;;;;;;;0.90;0.30;;;31.40;99.90;;;;;;5016742;28;20541;-74
2022/06/18 11:16:57;;;;;;;0.70;0.20;;;31.50;99.90;;;;;;5017177;28;20456;-72
2022/06/18 11:19:32;;;;;;;0.80;0.30;;;31.70;99.90;;;;;;5016586;28;20793;-72
2022/06/18 11:22:11;;;;;;;0.70;0.20;;;31.70;99.90;;;;;;5014700;28;20515;-73
2022/06/18 11:24:39;;;;;;;1.83;1.43;;;31.80;99.90;;;;;;5016638;28;20436;-72
2022/06/18 11:27:14;;;;;;;0.70;0.20;;;31.80;99.90;;;;;;5012265;28;20441;-73
2022/06/18 11:29:46;;;;;;;0.70;0.20;;;32.00;99.90;;;;;;4997038;28;20469;-73
2022/06/18 11:32:20;;;;;;;0.90;0.40;;;32.10;99.90;;;;;;5009221;28;20478;-73
2022/06/18 11:34:53;;;;;;;0.70;0.10;;;32.20;99.90;;;;;;5015000;28;20448;-74
2022/06/18 11:37:23;;;;;;;0.70;0.20;;;32.20;99.90;;;;;;5015986;28;20444;-72
2022/06/18 11:40:02;;;;;;;0.70;0.20;;;32.40;99.90;;;;;;5017744;28;20464;-74
2022/06/18 11:42:37;;;;;;;0.70;0.10;;;32.40;99.90;;;;;;5017794;28;20463;-72
2022/06/18 11:45:22;;;;;;;0.70;0.23;;;32.40;99.90;;;;;;5014950;28;20458;-74
2022/06/18 11:47:56;;;;;;;0.70;0.20;;;32.60;99.90;;;;;;5014221;28;20880;-73
2022/06/18 11:50:30;;;;;;;0.70;0.20;;;32.70;99.90;;;;;;5014318;28;20487;-72
2022/06/18 11:53:05;;;;;;;0.70;0.20;;;32.80;99.90;;;;;;5015454;28;20441;-73
2022/06/18 11:55:36;;;;;;;0.70;0.20;;;32.90;99.90;;;;;;5015395;28;20462;-73
2022/06/18 11:58:13;;;;;;;0.70;0.20;;;32.90;99.90;;;;;;5015109;28;20799;-73
2022/06/18 12:00:50;;;;;;;1.10;0.77;;;33.00;99.90;;;;;;5002668;28;20469;-73
2022/06/18 12:03:27;;;;;;;0.70;0.20;;;33.00;99.90;;;;;;4995964;28;20449;-72
2022/06/18 12:06:03;;;;;;;2.80;1.37;;;32.70;99.90;;;;;;4991678;28;20561;-72
2022/06/18 12:08:31;;;;;;;0.70;0.20;;;32.70;99.90;;;;;;4993597;28;20460;-72
2022/06/18 12:11:04;;;;;;;0.90;0.60;;;32.80;99.90;;;;;;4994839;28;20485;-73
2022/06/18 12:13:38;;;;;;;0.70;0.10;;;32.80;99.90;;;;;;4994559;28;20941;-73
2022/06/18 12:16:19;;;;;;;0.70;0.20;;;33.00;99.90;;;;;;4994558;28;20464;-71
2022/06/18 12:18:53;;;;;;;0.70;0.20;;;33.10;99.90;;;;;;4994896;28;20449;-73
2022/06/18 12:21:34;;;;;;;5.70;0.97;;;33.10;99.90;;;;;;4994463;28;20459;-73
2022/06/18 12:24:14;;;;;;;0.70;0.20;;;33.20;99.90;;;;;;4994403;28;20480;-71
2022/06/18 12:26:50;;;;;;;0.80;0.40;;;33.40;99.90;;;;;;4994168;28;20912;-73
2022/06/18 12:29:39;;;;;;;0.70;0.20;;;33.70;99.90;;;;;;4994481;28;20448;-74
2022/06/18 12:32:16;;;;;;;0.90;0.50;;;33.80;99.90;;;;;;4994739;28;20489;-73
2022/06/18 12:34:54;;;;;;;0.70;0.20;;;33.80;99.90;;;;;;4994170;28;20814;-72
2022/06/18 12:37:33;;;;;;;0.70;0.20;;;33.80;99.90;;;;;;4994053;28;20440;-72
2022/06/18 12:40:08;;;;;;;0.70;0.20;;;33.60;99.90;;;;;;4994314;28;20469;-73
2022/06/18 12:42:44;;;;;;;0.70;0.20;;;33.60;99.90;;;;;;4994421;28;20445;-72
2022/06/18 12:45:22;;;;;;;0.70;0.20;;;33.70;99.90;;;;;;4993750;28;20822;-73
2022/06/18 12:48:02;;;;;;;0.70;0.20;;;33.80;99.90;;;;;;4993384;28;20448;-73
2022/06/18 12:50:41;;;;;;;0.70;0.20;;;33.90;99.90;;;;;;4993393;28;20469;-73
2022/06/18 12:53:22;;;;;;;1.70;1.60;;;33.90;99.90;;;;;;4994191;28;20443;-73
2022/06/18 12:55:57;;;;;;;4.20;1.27;;;34.00;99.90;;;;;;4994718;28;20514;-74
2022/06/18 12:58:32;;;;;;;4.10;0.70;;;33.90;99.90;;;;;;4995280;28;20433;-73
2022/06/18 13:01:03;;;;;;;1.33;1.23;;;33.70;99.90;;;;;;4996554;28;20465;-72
2022/06/18 13:03:56;;;;;;;0.70;0.30;;;33.70;99.90;;;;;;4995341;28;20434;-73
2022/06/18 13:06:36;;;;;;;0.70;0.20;;;33.80;99.90;;;;;;4992840;28;20483;-72
2022/06/18 13:09:19;;;;;;;0.93;0.40;;;33.80;99.90;;;;;;4989626;28;20829;-73
2022/06/18 13:12:03;;;;;;;0.70;0.20;;;34.00;99.90;;;;;;4989014;28;20500;-73
2022/06/18 13:14:46;;;;;;;0.70;0.10;;;34.10;99.90;;;;;;4987006;28;20471;-72
2022/06/18 13:17:19;;;;;;;0.70;0.20;;;34.20;99.90;;;;;;4994261;28;20452;-74
2022/06/18 13:19:52;;;;;;;0.70;0.20;;;34.40;99.90;;;;;;4993422;28;20462;-73
2022/06/18 13:22:20;;;;;;;1.30;0.40;;;34.40;99.90;;;;;;4997538;28;20433;-73
2022/06/18 13:30:37;;;;;;;0.70;0.20;;;34.30;99.90;;;;;;4991674;28;20461;-71
2022/06/18 13:33:11;;;;;;;1.10;0.23;;;34.40;99.90;;;;;;4986783;28;20488;-73